sensor_id;sensor_type;location;lat;lon;timestamp;P1;durP1;ratioP1;P2;durP2;ratioP2
23159;SDS011;11748;50.844;4.396;2024-01-16T00:01:06;12.18;;;4.75;;
23159;SDS011;11748;50.844;4.396;2024-01-16T00:03:33;14.18;;;4.65;;
23159;SDS011;11748;50.844;4.396;2024-01-16T00:06:00;9.40;;;4.43;;
23159;SDS011;11748;50.844;4.396;2024-01-16T00:08:27;12.75;;;4.78;;
23159;SDS011;11748;50.844;4.396;2024-01-16T00:10:52;13.70;;;4.97;;
23159;SDS011;11748;50.844;4.396;2024-01-16T00:13:19;12.23;;;4.57;;
23159;SDS011;11748;50.844;4.396;2024-01-16T00:15:45;11.07;;;4.50;;
23159;SDS011;11748;50.844;4.396;2024-01-16T00:18:10;11.15;;;5.00;;
23159;SDS011;11748;50.844;4.396;2024-01-16T00:20:36;10.63;;;4.97;;
23159;SDS011;11748;50.844;4.396;2024-01-16T00:23:03;11.75;;;4.68;;
23159;SDS011;11748;50.844;4.396;2024-01-16T00:25:28;11.13;;;5.40;;
23159;SDS011;11748;50.844;4.396;2024-01-16T00:27:55;12.57;;;5.18;;
23159;SDS011;11748;50.844;4.396;2024-01-16T00:30:21;11.82;;;5.35;;
23159;SDS011;11748;50.844;4.396;2024-01-16T00:32:46;13.52;;;6.00;;
23159;SDS011;11748;50.844;4.396;2024-01-16T00:35:13;13.23;;;5.28;;
23159;SDS011;11748;50.844;4.396;2024-01-16T00:37:39;13.48;;;5.65;;
23159;SDS011;11748;50.844;4.396;2024-01-16T00:40:05;13.38;;;5.10;;
23159;SDS011;11748;50.844;4.396;2024-01-16T00:42:33;11.70;;;5.60;;
23159;SDS011;11748;50.844;4.396;2024-01-16T00:44:59;12.65;;;5.40;;
23159;SDS011;11748;50.844;4.396;2024-01-16T00:47:25;9.40;;;6.05;;
23159;SDS011;11748;50.844;4.396;2024-01-16T00:49:51;17.75;;;6.03;;
23159;SDS011;11748;50.844;4.396;2024-01-16T00:52:17;12.30;;;5.55;;
23159;SDS011;11748;50.844;4.396;2024-01-16T00:54:44;12.60;;;4.63;;
23159;SDS011;11748;50.844;4.396;2024-01-16T00:57:09;16.08;;;5.80;;
23159;SDS011;11748;50.844;4.396;2024-01-16T00:59:36;12.90;;;4.72;;
23159;SDS011;11748;50.844;4.396;2024-01-16T01:02:02;13.45;;;5.38;;
23159;SDS011;11748;50.844;4.396;2024-01-16T01:04:29;8.60;;;4.70;;
23159;SDS011;11748;50.844;4.396;2024-01-16T01:06:54;11.93;;;5.47;;
23159;SDS011;11748;50.844;4.396;2024-01-16T01:09:20;13.75;;;5.85;;
23159;SDS011;11748;50.844;4.396;2024-01-16T01:11:46;10.40;;;5.22;;
23159;SDS011;11748;50.844;4.396;2024-01-16T01:14:12;12.82;;;4.82;;
23159;SDS011;11748;50.844;4.396;2024-01-16T01:16:37;12.13;;;5.65;;
23159;SDS011;11748;50.844;4.396;2024-01-16T01:19:03;11.68;;;5.35;;
23159;SDS011;11748;50.844;4.396;2024-01-16T01:21:29;13.93;;;5.82;;
23159;SDS011;11748;50.844;4.396;2024-01-16T01:23:55;10.80;;;5.65;;
23159;SDS011;11748;50.844;4.396;2024-01-16T01:26:20;12.93;;;5.68;;
23159;SDS011;11748;50.844;4.396;2024-01-16T01:28:46;12.40;;;5.88;;
23159;SDS011;11748;50.844;4.396;2024-01-16T01:31:12;12.70;;;5.72;;
23159;SDS011;11748;50.844;4.396;2024-01-16T01:33:38;12.75;;;5.97;;
23159;SDS011;11748;50.844;4.396;2024-01-16T01:36:04;16.40;;;5.95;;
23159;SDS011;11748;50.844;4.396;2024-01-16T01:38:30;11.10;;;5.95;;
23159;SDS011;11748;50.844;4.396;2024-01-16T01:40:55;13.90;;;5.60;;
23159;SDS011;11748;50.844;4.396;2024-01-16T01:43:25;16.05;;;5.88;;
23159;SDS011;11748;50.844;4.396;2024-01-16T01:48:43;12.30;;;5.30;;
23159;SDS011;11748;50.844;4.396;2024-01-16T01:51:10;15.15;;;5.18;;
23159;SDS011;11748;50.844;4.396;2024-01-16T01:53:38;11.35;;;5.43;;
23159;SDS011;11748;50.844;4.396;2024-01-16T01:56:15;13.20;;;5.13;;
23159;SDS011;11748;50.844;4.396;2024-01-16T01:58:44;12.15;;;5.32;;
23159;SDS011;11748;50.844;4.396;2024-01-16T02:01:11;15.30;;;5.50;;
23159;SDS011;11748;50.844;4.396;2024-01-16T02:03:42;11.85;;;4.65;;
23159;SDS011;11748;50.844;4.396;2024-01-16T02:06:10;12.93;;;5.35;;
23159;SDS011;11748;50.844;4.396;2024-01-16T02:08:37;12.25;;;4.75;;
23159;SDS011;11748;50.844;4.396;2024-01-16T02:11:03;9.93;;;5.00;;
23159;SDS011;11748;50.844;4.396;2024-01-16T02:13:29;14.10;;;5.63;;
23159;SDS011;11748;50.844;4.396;2024-01-16T02:15:54;11.35;;;4.78;;
23159;SDS011;11748;50.844;4.396;2024-01-16T02:18:20;13.80;;;5.63;;
23159;SDS011;11748;50.844;4.396;2024-01-16T02:20:46;11.95;;;4.95;;
23159;SDS011;11748;50.844;4.396;2024-01-16T02:23:13;12.10;;;5.38;;
23159;SDS011;11748;50.844;4.396;2024-01-16T02:25:41;14.57;;;5.10;;
23159;SDS011;11748;50.844;4.396;2024-01-16T02:28:08;15.05;;;5.32;;
23159;SDS011;11748;50.844;4.396;2024-01-16T02:30:34;11.70;;;5.18;;
23159;SDS011;11748;50.844;4.396;2024-01-16T02:33:00;13.00;;;5.00;;
23159;SDS011;11748;50.844;4.396;2024-01-16T02:35:25;13.77;;;4.65;;
23159;SDS011;11748;50.844;4.396;2024-01-16T02:37:51;12.07;;;5.00;;
23159;SDS011;11748;50.844;4.396;2024-01-16T02:40:18;13.65;;;4.78;;
23159;SDS011;11748;50.844;4.396;2024-01-16T02:42:44;13.40;;;4.95;;
23159;SDS011;11748;50.844;4.396;2024-01-16T02:45:10;8.43;;;4.60;;
23159;SDS011;11748;50.844;4.396;2024-01-16T02:47:36;12.93;;;4.22;;
23159;SDS011;11748;50.844;4.396;2024-01-16T02:50:04;11.82;;;4.40;;
23159;SDS011;11748;50.844;4.396;2024-01-16T02:52:30;12.88;;;4.65;;
23159;SDS011;11748;50.844;4.396;2024-01-16T02:54:57;13.68;;;4.93;;
23159;SDS011;11748;50.844;4.396;2024-01-16T02:57:22;8.73;;;4.78;;
23159;SDS011;11748;50.844;4.396;2024-01-16T02:59:48;11.18;;;5.07;;
23159;SDS011;11748;50.844;4.396;2024-01-16T03:02:14;13.38;;;5.82;;
23159;SDS011;11748;50.844;4.396;2024-01-16T03:04:39;12.73;;;5.43;;
23159;SDS011;11748;50.844;4.396;2024-01-16T03:07:06;12.60;;;4.78;;
23159;SDS011;11748;50.844;4.396;2024-01-16T03:09:32;9.88;;;4.50;;
23159;SDS011;11748;50.844;4.396;2024-01-16T03:11:59;10.13;;;4.88;;
23159;SDS011;11748;50.844;4.396;2024-01-16T03:14:24;11.23;;;4.97;;
23159;SDS011;11748;50.844;4.396;2024-01-16T03:16:50;11.85;;;5.53;;
23159;SDS011;11748;50.844;4.396;2024-01-16T03:19:16;12.60;;;5.53;;
23159;SDS011;11748;50.844;4.396;2024-01-16T03:21:42;13.73;;;5.03;;
23159;SDS011;11748;50.844;4.396;2024-01-16T03:24:08;13.48;;;5.15;;
23159;SDS011;11748;50.844;4.396;2024-01-16T03:26:35;13.77;;;4.85;;
23159;SDS011;11748;50.844;4.396;2024-01-16T03:29:02;7.53;;;5.00;;
23159;SDS011;11748;50.844;4.396;2024-01-16T03:31:28;13.30;;;4.78;;
23159;SDS011;11748;50.844;4.396;2024-01-16T03:33:53;9.82;;;4.75;;
23159;SDS011;11748;50.844;4.396;2024-01-16T03:36:19;9.25;;;4.97;;
23159;SDS011;11748;50.844;4.396;2024-01-16T03:38:45;13.80;;;5.18;;
23159;SDS011;11748;50.844;4.396;2024-01-16T03:41:10;8.82;;;3.92;;
23159;SDS011;11748;50.844;4.396;2024-01-16T03:43:39;15.30;;;4.60;;
23159;SDS011;11748;50.844;4.396;2024-01-16T03:46:05;10.45;;;4.82;;
23159;SDS011;11748;50.844;4.396;2024-01-16T03:48:31;10.65;;;5.13;;
23159;SDS011;11748;50.844;4.396;2024-01-16T03:50:57;10.25;;;4.90;;
23159;SDS011;11748;50.844;4.396;2024-01-16T03:53:25;13.25;;;4.93;;
23159;SDS011;11748;50.844;4.396;2024-01-16T03:55:50;10.50;;;5.07;;
23159;SDS011;11748;50.844;4.396;2024-01-16T03:58:16;12.13;;;4.28;;
23159;SDS011;11748;50.844;4.396;2024-01-16T04:00:42;14.98;;;5.15;;
23159;SDS011;11748;50.844;4.396;2024-01-16T04:03:08;11.38;;;4.97;;
23159;SDS011;11748;50.844;4.396;2024-01-16T04:05:33;8.63;;;4.45;;
23159;SDS011;11748;50.844;4.396;2024-01-16T04:07:59;12.18;;;4.65;;
23159;SDS011;11748;50.844;4.396;2024-01-16T04:10:28;12.00;;;5.85;;
23159;SDS011;11748;50.844;4.396;2024-01-16T04:12:53;11.40;;;4.60;;
23159;SDS011;11748;50.844;4.396;2024-01-16T04:15:20;10.18;;;5.07;;
23159;SDS011;11748;50.844;4.396;2024-01-16T04:17:45;10.63;;;5.90;;
23159;SDS011;11748;50.844;4.396;2024-01-16T04:20:11;11.98;;;5.55;;
23159;SDS011;11748;50.844;4.396;2024-01-16T04:22:36;12.15;;;5.13;;
23159;SDS011;11748;50.844;4.396;2024-01-16T04:25:02;8.90;;;5.32;;
23159;SDS011;11748;50.844;4.396;2024-01-16T04:27:30;16.02;;;5.68;;
23159;SDS011;11748;50.844;4.396;2024-01-16T04:29:56;14.63;;;5.47;;
23159;SDS011;11748;50.844;4.396;2024-01-16T04:32:22;14.43;;;5.57;;
23159;SDS011;11748;50.844;4.396;2024-01-16T04:34:47;11.15;;;5.57;;
23159;SDS011;11748;50.844;4.396;2024-01-16T04:37:13;14.05;;;5.68;;
23159;SDS011;11748;50.844;4.396;2024-01-16T04:39:39;12.10;;;5.75;;
23159;SDS011;11748;50.844;4.396;2024-01-16T04:42:04;12.07;;;6.07;;
23159;SDS011;11748;50.844;4.396;2024-01-16T04:44:30;12.43;;;5.80;;
23159;SDS011;11748;50.844;4.396;2024-01-16T04:46:55;16.80;;;4.85;;
23159;SDS011;11748;50.844;4.396;2024-01-16T04:49:21;12.45;;;5.15;;
23159;SDS011;11748;50.844;4.396;2024-01-16T04:51:46;10.02;;;5.45;;
23159;SDS011;11748;50.844;4.396;2024-01-16T04:54:12;12.45;;;5.93;;
23159;SDS011;11748;50.844;4.396;2024-01-16T04:56:38;9.10;;;5.30;;
23159;SDS011;11748;50.844;4.396;2024-01-16T04:59:03;9.93;;;5.18;;
23159;SDS011;11748;50.844;4.396;2024-01-16T05:01:29;13.27;;;5.63;;
23159;SDS011;11748;50.844;4.396;2024-01-16T05:03:55;11.15;;;4.97;;
23159;SDS011;11748;50.844;4.396;2024-01-16T05:06:20;11.63;;;5.90;;
23159;SDS011;11748;50.844;4.396;2024-01-16T05:08:46;11.23;;;5.18;;
23159;SDS011;11748;50.844;4.396;2024-01-16T05:11:12;13.35;;;4.93;;
23159;SDS011;11748;50.844;4.396;2024-01-16T05:13:38;11.65;;;5.00;;
23159;SDS011;11748;50.844;4.396;2024-01-16T05:16:03;13.35;;;5.38;;
23159;SDS011;11748;50.844;4.396;2024-01-16T05:18:29;9.65;;;5.20;;
23159;SDS011;11748;50.844;4.396;2024-01-16T05:20:55;10.73;;;5.60;;
23159;SDS011;11748;50.844;4.396;2024-01-16T05:23:21;16.27;;;5.70;;
23159;SDS011;11748;50.844;4.396;2024-01-16T05:25:47;12.65;;;5.65;;
23159;SDS011;11748;50.844;4.396;2024-01-16T05:28:12;11.90;;;6.00;;
23159;SDS011;11748;50.844;4.396;2024-01-16T05:30:38;17.20;;;6.85;;
23159;SDS011;11748;50.844;4.396;2024-01-16T05:33:04;11.13;;;5.25;;
23159;SDS011;11748;50.844;4.396;2024-01-16T05:35:29;9.77;;;5.38;;
23159;SDS011;11748;50.844;4.396;2024-01-16T05:37:55;13.52;;;6.05;;
23159;SDS011;11748;50.844;4.396;2024-01-16T05:40:21;13.38;;;6.50;;
23159;SDS011;11748;50.844;4.396;2024-01-16T05:42:50;14.60;;;5.95;;
23159;SDS011;11748;50.844;4.396;2024-01-16T05:45:16;11.15;;;5.72;;
23159;SDS011;11748;50.844;4.396;2024-01-16T05:47:42;12.00;;;5.82;;
23159;SDS011;11748;50.844;4.396;2024-01-16T05:50:08;14.75;;;5.75;;
23159;SDS011;11748;50.844;4.396;2024-01-16T05:52:33;15.48;;;6.05;;
23159;SDS011;11748;50.844;4.396;2024-01-16T05:54:59;12.65;;;5.70;;
23159;SDS011;11748;50.844;4.396;2024-01-16T05:57:25;14.25;;;5.90;;
23159;SDS011;11748;50.844;4.396;2024-01-16T05:59:51;16.13;;;5.85;;
23159;SDS011;11748;50.844;4.396;2024-01-16T06:02:17;18.10;;;6.25;;
23159;SDS011;11748;50.844;4.396;2024-01-16T06:04:42;9.88;;;6.00;;
23159;SDS011;11748;50.844;4.396;2024-01-16T06:07:08;13.23;;;5.70;;
23159;SDS011;11748;50.844;4.396;2024-01-16T06:09:42;12.85;;;6.13;;
23159;SDS011;11748;50.844;4.396;2024-01-16T06:12:08;14.43;;;5.97;;
23159;SDS011;11748;50.844;4.396;2024-01-16T06:14:34;12.18;;;4.90;;
23159;SDS011;11748;50.844;4.396;2024-01-16T06:16:59;14.48;;;5.95;;
23159;SDS011;11748;50.844;4.396;2024-01-16T06:19:26;11.07;;;5.38;;
23159;SDS011;11748;50.844;4.396;2024-01-16T06:21:51;17.30;;;6.10;;
23159;SDS011;11748;50.844;4.396;2024-01-16T06:24:17;13.27;;;6.45;;
23159;SDS011;11748;50.844;4.396;2024-01-16T06:26:42;12.07;;;5.72;;
23159;SDS011;11748;50.844;4.396;2024-01-16T06:29:08;17.23;;;8.73;;
23159;SDS011;11748;50.844;4.396;2024-01-16T06:31:34;14.88;;;6.07;;
23159;SDS011;11748;50.844;4.396;2024-01-16T06:34:00;20.33;;;8.10;;
23159;SDS011;11748;50.844;4.396;2024-01-16T06:36:25;18.58;;;6.93;;
23159;SDS011;11748;50.844;4.396;2024-01-16T06:38:51;16.90;;;6.43;;
23159;SDS011;11748;50.844;4.396;2024-01-16T06:41:17;15.38;;;6.40;;
23159;SDS011;11748;50.844;4.396;2024-01-16T06:43:44;16.02;;;6.30;;
23159;SDS011;11748;50.844;4.396;2024-01-16T06:46:09;13.27;;;5.80;;
23159;SDS011;11748;50.844;4.396;2024-01-16T06:48:35;13.00;;;6.15;;
23159;SDS011;11748;50.844;4.396;2024-01-16T06:51:05;11.27;;;5.63;;
23159;SDS011;11748;50.844;4.396;2024-01-16T06:53:30;10.32;;;5.57;;
23159;SDS011;11748;50.844;4.396;2024-01-16T06:55:56;16.27;;;6.30;;
23159;SDS011;11748;50.844;4.396;2024-01-16T06:58:22;17.05;;;5.78;;
23159;SDS011;11748;50.844;4.396;2024-01-16T07:00:47;13.05;;;6.10;;
23159;SDS011;11748;50.844;4.396;2024-01-16T07:03:13;15.05;;;5.80;;
23159;SDS011;11748;50.844;4.396;2024-01-16T07:05:39;14.68;;;6.03;;
23159;SDS011;11748;50.844;4.396;2024-01-16T07:08:06;10.50;;;5.55;;
23159;SDS011;11748;50.844;4.396;2024-01-16T07:10:32;14.27;;;6.45;;
23159;SDS011;11748;50.844;4.396;2024-01-16T07:12:59;10.75;;;6.25;;
23159;SDS011;11748;50.844;4.396;2024-01-16T07:15:25;15.82;;;5.63;;
23159;SDS011;11748;50.844;4.396;2024-01-16T07:17:51;11.30;;;5.50;;
23159;SDS011;11748;50.844;4.396;2024-01-16T07:20:16;12.02;;;5.50;;
23159;SDS011;11748;50.844;4.396;2024-01-16T07:22:42;14.43;;;5.13;;
23159;SDS011;11748;50.844;4.396;2024-01-16T07:25:08;13.75;;;5.13;;
23159;SDS011;11748;50.844;4.396;2024-01-16T07:27:34;9.23;;;5.10;;
23159;SDS011;11748;50.844;4.396;2024-01-16T07:30:00;10.43;;;5.28;;
23159;SDS011;11748;50.844;4.396;2024-01-16T07:32:26;16.27;;;5.45;;
23159;SDS011;11748;50.844;4.396;2024-01-16T07:34:51;11.77;;;5.00;;
23159;SDS011;11748;50.844;4.396;2024-01-16T07:37:18;10.27;;;4.95;;
23159;SDS011;11748;50.844;4.396;2024-01-16T07:39:44;10.77;;;5.10;;
23159;SDS011;11748;50.844;4.396;2024-01-16T07:42:11;11.57;;;5.90;;
23159;SDS011;11748;50.844;4.396;2024-01-16T07:44:36;16.60;;;5.32;;
23159;SDS011;11748;50.844;4.396;2024-01-16T07:47:02;11.55;;;5.13;;
23159;SDS011;11748;50.844;4.396;2024-01-16T07:49:28;11.38;;;5.63;;
23159;SDS011;11748;50.844;4.396;2024-01-16T07:51:54;11.30;;;5.07;;
23159;SDS011;11748;50.844;4.396;2024-01-16T07:54:20;12.82;;;4.82;;
23159;SDS011;11748;50.844;4.396;2024-01-16T07:56:46;11.05;;;5.30;;
23159;SDS011;11748;50.844;4.396;2024-01-16T07:59:12;11.50;;;5.15;;
23159;SDS011;11748;50.844;4.396;2024-01-16T08:01:37;14.88;;;5.20;;
23159;SDS011;11748;50.844;4.396;2024-01-16T08:04:03;10.02;;;4.80;;
23159;SDS011;11748;50.844;4.396;2024-01-16T08:06:29;13.82;;;5.22;;
23159;SDS011;11748;50.844;4.396;2024-01-16T08:08:55;13.13;;;5.35;;
23159;SDS011;11748;50.844;4.396;2024-01-16T08:11:20;11.20;;;5.05;;
23159;SDS011;11748;50.844;4.396;2024-01-16T08:13:46;10.05;;;4.43;;
23159;SDS011;11748;50.844;4.396;2024-01-16T08:16:12;15.57;;;5.35;;
23159;SDS011;11748;50.844;4.396;2024-01-16T08:18:38;10.57;;;5.07;;
23159;SDS011;11748;50.844;4.396;2024-01-16T08:21:03;13.35;;;4.95;;
23159;SDS011;11748;50.844;4.396;2024-01-16T08:23:29;9.65;;;4.70;;
23159;SDS011;11748;50.844;4.396;2024-01-16T08:25:55;13.00;;;5.00;;
23159;SDS011;11748;50.844;4.396;2024-01-16T08:28:20;14.82;;;5.20;;
23159;SDS011;11748;50.844;4.396;2024-01-16T08:30:49;12.25;;;5.40;;
23159;SDS011;11748;50.844;4.396;2024-01-16T08:33:15;11.32;;;4.30;;
23159;SDS011;11748;50.844;4.396;2024-01-16T08:35:41;9.35;;;4.13;;
23159;SDS011;11748;50.844;4.396;2024-01-16T08:38:10;8.52;;;4.03;;
23159;SDS011;11748;50.844;4.396;2024-01-16T08:40:36;11.43;;;5.05;;
23159;SDS011;11748;50.844;4.396;2024-01-16T08:43:01;7.63;;;4.65;;
23159;SDS011;11748;50.844;4.396;2024-01-16T08:45:28;9.48;;;4.72;;
23159;SDS011;11748;50.844;4.396;2024-01-16T08:47:55;13.02;;;4.93;;
23159;SDS011;11748;50.844;4.396;2024-01-16T08:50:20;13.20;;;5.22;;
23159;SDS011;11748;50.844;4.396;2024-01-16T08:52:47;9.48;;;4.10;;
23159;SDS011;11748;50.844;4.396;2024-01-16T08:55:12;11.40;;;4.28;;
23159;SDS011;11748;50.844;4.396;2024-01-16T08:57:38;11.02;;;4.95;;
23159;SDS011;11748;50.844;4.396;2024-01-16T09:00:07;9.63;;;3.95;;
23159;SDS011;11748;50.844;4.396;2024-01-16T09:02:35;14.52;;;5.60;;
23159;SDS011;11748;50.844;4.396;2024-01-16T09:05:01;13.27;;;4.72;;
23159;SDS011;11748;50.844;4.396;2024-01-16T09:07:27;11.75;;;4.65;;
23159;SDS011;11748;50.844;4.396;2024-01-16T09:09:52;9.85;;;3.92;;
23159;SDS011;11748;50.844;4.396;2024-01-16T09:12:18;13.15;;;4.60;;
23159;SDS011;11748;50.844;4.396;2024-01-16T09:14:44;12.30;;;4.47;;
23159;SDS011;11748;50.844;4.396;2024-01-16T09:17:11;10.18;;;4.35;;
23159;SDS011;11748;50.844;4.396;2024-01-16T09:19:37;8.60;;;4.30;;
23159;SDS011;11748;50.844;4.396;2024-01-16T09:22:03;10.73;;;4.13;;
23159;SDS011;11748;50.844;4.396;2024-01-16T09:24:29;9.50;;;4.47;;
23159;SDS011;11748;50.844;4.396;2024-01-16T09:26:57;6.53;;;3.85;;
23159;SDS011;11748;50.844;4.396;2024-01-16T09:29:23;8.07;;;4.25;;
23159;SDS011;11748;50.844;4.396;2024-01-16T09:31:49;9.82;;;4.45;;
23159;SDS011;11748;50.844;4.396;2024-01-16T09:34:15;12.55;;;4.78;;
23159;SDS011;11748;50.844;4.396;2024-01-16T09:36:42;14.90;;;4.38;;
23159;SDS011;11748;50.844;4.396;2024-01-16T09:39:08;13.07;;;4.43;;
23159;SDS011;11748;50.844;4.396;2024-01-16T09:41:35;6.50;;;3.30;;
23159;SDS011;11748;50.844;4.396;2024-01-16T09:44:01;8.35;;;4.00;;
23159;SDS011;11748;50.844;4.396;2024-01-16T09:46:28;7.38;;;4.13;;
23159;SDS011;11748;50.844;4.396;2024-01-16T09:48:56;12.40;;;4.63;;
23159;SDS011;11748;50.844;4.396;2024-01-16T09:51:24;10.02;;;3.70;;
23159;SDS011;11748;50.844;4.396;2024-01-16T09:53:50;12.60;;;4.85;;
23159;SDS011;11748;50.844;4.396;2024-01-16T09:56:16;8.82;;;3.85;;
23159;SDS011;11748;50.844;4.396;2024-01-16T09:58:45;10.10;;;4.45;;
23159;SDS011;11748;50.844;4.396;2024-01-16T10:01:14;12.75;;;4.85;;
23159;SDS011;11748;50.844;4.396;2024-01-16T10:03:41;7.43;;;3.63;;
23159;SDS011;11748;50.844;4.396;2024-01-16T10:06:10;10.43;;;4.30;;
23159;SDS011;11748;50.844;4.396;2024-01-16T10:08:37;10.57;;;4.35;;
23159;SDS011;11748;50.844;4.396;2024-01-16T10:11:03;11.45;;;4.43;;
23159;SDS011;11748;50.844;4.396;2024-01-16T10:13:28;14.23;;;4.82;;
23159;SDS011;11748;50.844;4.396;2024-01-16T10:15:54;7.60;;;3.72;;
23159;SDS011;11748;50.844;4.396;2024-01-16T10:18:27;9.80;;;4.35;;
23159;SDS011;11748;50.844;4.396;2024-01-16T10:20:57;8.95;;;4.82;;
23159;SDS011;11748;50.844;4.396;2024-01-16T10:26:06;13.02;;;4.82;;
23159;SDS011;11748;50.844;4.396;2024-01-16T10:28:38;11.00;;;4.28;;
23159;SDS011;11748;50.844;4.396;2024-01-16T10:31:05;9.23;;;4.10;;
23159;SDS011;11748;50.844;4.396;2024-01-16T10:33:33;8.70;;;4.60;;
23159;SDS011;11748;50.844;4.396;2024-01-16T10:38:45;8.35;;;4.22;;
23159;SDS011;11748;50.844;4.396;2024-01-16T10:43:42;11.25;;;4.03;;
23159;SDS011;11748;50.844;4.396;2024-01-16T10:46:11;10.98;;;4.95;;
23159;SDS011;11748;50.844;4.396;2024-01-16T10:48:37;12.25;;;4.43;;
23159;SDS011;11748;50.844;4.396;2024-01-16T10:51:05;11.27;;;3.90;;
23159;SDS011;11748;50.844;4.396;2024-01-16T10:53:32;13.38;;;4.13;;
23159;SDS011;11748;50.844;4.396;2024-01-16T10:55:59;10.25;;;4.38;;
23159;SDS011;11748;50.844;4.396;2024-01-16T10:58:28;7.35;;;3.47;;
23159;SDS011;11748;50.844;4.396;2024-01-16T11:00:57;9.35;;;4.00;;
23159;SDS011;11748;50.844;4.396;2024-01-16T11:03:38;8.73;;;4.32;;
23159;SDS011;11748;50.844;4.396;2024-01-16T11:06:14;12.98;;;4.32;;
23159;SDS011;11748;50.844;4.396;2024-01-16T11:08:46;8.27;;;3.88;;
23159;SDS011;11748;50.844;4.396;2024-01-16T11:11:13;8.32;;;3.67;;
23159;SDS011;11748;50.844;4.396;2024-01-16T11:13:39;8.40;;;3.90;;
23159;SDS011;11748;50.844;4.396;2024-01-16T11:16:06;10.15;;;3.45;;
23159;SDS011;11748;50.844;4.396;2024-01-16T11:18:35;8.63;;;4.43;;
23159;SDS011;11748;50.844;4.396;2024-01-16T11:21:01;12.07;;;4.53;;
23159;SDS011;11748;50.844;4.396;2024-01-16T11:23:29;11.65;;;4.30;;
23159;SDS011;11748;50.844;4.396;2024-01-16T11:25:55;11.18;;;4.30;;
23159;SDS011;11748;50.844;4.396;2024-01-16T11:28:21;10.98;;;4.22;;
23159;SDS011;11748;50.844;4.396;2024-01-16T11:30:53;11.95;;;7.05;;
23159;SDS011;11748;50.844;4.396;2024-01-16T11:35:56;9.95;;;4.75;;
23159;SDS011;11748;50.844;4.396;2024-01-16T11:38:22;11.68;;;4.70;;
23159;SDS011;11748;50.844;4.396;2024-01-16T11:40:51;9.23;;;4.38;;
23159;SDS011;11748;50.844;4.396;2024-01-16T11:46:03;7.72;;;3.55;;
23159;SDS011;11748;50.844;4.396;2024-01-16T11:48:33;12.25;;;4.13;;
23159;SDS011;11748;50.844;4.396;2024-01-16T11:50:59;9.40;;;3.75;;
23159;SDS011;11748;50.844;4.396;2024-01-16T11:59:01;11.52;;;4.13;;
23159;SDS011;11748;50.844;4.396;2024-01-16T12:01:52;9.07;;;3.85;;
23159;SDS011;11748;50.844;4.396;2024-01-16T12:04:23;9.63;;;3.33;;
23159;SDS011;11748;50.844;4.396;2024-01-16T12:06:56;7.60;;;3.22;;
23159;SDS011;11748;50.844;4.396;2024-01-16T12:09:25;9.83;;;4.50;;
23159;SDS011;11748;50.844;4.396;2024-01-16T12:11:58;12.02;;;4.57;;
23159;SDS011;11748;50.844;4.396;2024-01-16T12:14:28;7.57;;;3.85;;
23159;SDS011;11748;50.844;4.396;2024-01-16T12:17:13;7.72;;;3.53;;
23159;SDS011;11748;50.844;4.396;2024-01-16T12:19:39;7.45;;;3.50;;
23159;SDS011;11748;50.844;4.396;2024-01-16T12:22:10;8.57;;;3.90;;
23159;SDS011;11748;50.844;4.396;2024-01-16T12:24:38;5.25;;;3.15;;
23159;SDS011;11748;50.844;4.396;2024-01-16T12:27:05;9.15;;;3.13;;
23159;SDS011;11748;50.844;4.396;2024-01-16T12:29:32;6.13;;;3.55;;
23159;SDS011;11748;50.844;4.396;2024-01-16T12:32:07;11.18;;;3.45;;
23159;SDS011;11748;50.844;4.396;2024-01-16T12:34:43;6.97;;;3.67;;
23159;SDS011;11748;50.844;4.396;2024-01-16T12:37:11;9.52;;;4.10;;
23159;SDS011;11748;50.844;4.396;2024-01-16T12:39:37;9.85;;;3.65;;
23159;SDS011;11748;50.844;4.396;2024-01-16T12:42:03;7.95;;;3.78;;
23159;SDS011;11748;50.844;4.396;2024-01-16T12:44:29;9.75;;;3.35;;
23159;SDS011;11748;50.844;4.396;2024-01-16T12:46:55;8.05;;;3.53;;
23159;SDS011;11748;50.844;4.396;2024-01-16T12:49:22;13.38;;;6.03;;
23159;SDS011;11748;50.844;4.396;2024-01-16T12:51:48;9.05;;;3.40;;
23159;SDS011;11748;50.844;4.396;2024-01-16T12:54:15;12.75;;;6.22;;
23159;SDS011;11748;50.844;4.396;2024-01-16T12:56:42;9.02;;;3.47;;
23159;SDS011;11748;50.844;4.396;2024-01-16T12:59:09;9.20;;;3.58;;
23159;SDS011;11748;50.844;4.396;2024-01-16T13:01:42;9.43;;;4.00;;
23159;SDS011;11748;50.844;4.396;2024-01-16T13:04:10;10.15;;;4.05;;
23159;SDS011;11748;50.844;4.396;2024-01-16T13:06:36;7.85;;;3.75;;
23159;SDS011;11748;50.844;4.396;2024-01-16T13:09:09;8.27;;;3.70;;
23159;SDS011;11748;50.844;4.396;2024-01-16T13:14:11;8.98;;;4.13;;
23159;SDS011;11748;50.844;4.396;2024-01-16T13:16:37;12.32;;;3.83;;
23159;SDS011;11748;50.844;4.396;2024-01-16T13:19:03;11.93;;;4.03;;
23159;SDS011;11748;50.844;4.396;2024-01-16T13:21:48;6.25;;;3.80;;
23159;SDS011;11748;50.844;4.396;2024-01-16T13:24:14;7.32;;;3.67;;
23159;SDS011;11748;50.844;4.396;2024-01-16T13:26:42;9.48;;;4.60;;
23159;SDS011;11748;50.844;4.396;2024-01-16T13:29:08;9.05;;;3.78;;
23159;SDS011;11748;50.844;4.396;2024-01-16T13:31:34;12.30;;;3.78;;
23159;SDS011;11748;50.844;4.396;2024-01-16T13:34:00;9.80;;;3.58;;
23159;SDS011;11748;50.844;4.396;2024-01-16T13:36:25;10.65;;;4.15;;
23159;SDS011;11748;50.844;4.396;2024-01-16T13:38:51;7.95;;;3.55;;
23159;SDS011;11748;50.844;4.396;2024-01-16T13:41:17;8.35;;;3.85;;
23159;SDS011;11748;50.844;4.396;2024-01-16T13:43:42;8.95;;;3.58;;
23159;SDS011;11748;50.844;4.396;2024-01-16T13:46:08;9.50;;;3.67;;
23159;SDS011;11748;50.844;4.396;2024-01-16T13:48:35;7.57;;;3.45;;
23159;SDS011;11748;50.844;4.396;2024-01-16T13:51:00;9.23;;;3.42;;
23159;SDS011;11748;50.844;4.396;2024-01-16T13:53:32;8.07;;;3.10;;
23159;SDS011;11748;50.844;4.396;2024-01-16T13:55:59;11.35;;;3.55;;
23159;SDS011;11748;50.844;4.396;2024-01-16T13:58:25;14.93;;;3.40;;
23159;SDS011;11748;50.844;4.396;2024-01-16T14:00:51;7.82;;;3.80;;
23159;SDS011;11748;50.844;4.396;2024-01-16T14:03:17;11.23;;;3.20;;
23159;SDS011;11748;50.844;4.396;2024-01-16T14:05:45;12.10;;;3.60;;
23159;SDS011;11748;50.844;4.396;2024-01-16T14:08:11;7.03;;;3.30;;
23159;SDS011;11748;50.844;4.396;2024-01-16T14:10:38;6.80;;;3.13;;
23159;SDS011;11748;50.844;4.396;2024-01-16T14:13:04;8.90;;;3.10;;
23159;SDS011;11748;50.844;4.396;2024-01-16T14:15:29;7.70;;;3.08;;
23159;SDS011;11748;50.844;4.396;2024-01-16T14:17:55;7.93;;;3.00;;
23159;SDS011;11748;50.844;4.396;2024-01-16T14:20:23;7.18;;;3.13;;
23159;SDS011;11748;50.844;4.396;2024-01-16T14:22:51;4.82;;;2.72;;
23159;SDS011;11748;50.844;4.396;2024-01-16T14:25:19;5.45;;;3.42;;
23159;SDS011;11748;50.844;4.396;2024-01-16T14:27:48;7.60;;;3.15;;
23159;SDS011;11748;50.844;4.396;2024-01-16T14:30:22;7.97;;;2.72;;
23159;SDS011;11748;50.844;4.396;2024-01-16T14:32:47;5.40;;;2.75;;
23159;SDS011;11748;50.844;4.396;2024-01-16T14:35:15;6.95;;;3.30;;
23159;SDS011;11748;50.844;4.396;2024-01-16T14:37:55;8.20;;;3.45;;
23159;SDS011;11748;50.844;4.396;2024-01-16T14:40:28;6.28;;;2.85;;
23159;SDS011;11748;50.844;4.396;2024-01-16T14:42:56;5.07;;;2.65;;
23159;SDS011;11748;50.844;4.396;2024-01-16T14:45:30;7.38;;;2.78;;
23159;SDS011;11748;50.844;4.396;2024-01-16T14:50:34;4.95;;;2.90;;
23159;SDS011;11748;50.844;4.396;2024-01-16T14:53:01;10.75;;;3.05;;
23159;SDS011;11748;50.844;4.396;2024-01-16T14:55:28;6.82;;;3.40;;
23159;SDS011;11748;50.844;4.396;2024-01-16T14:57:53;5.05;;;2.92;;
23159;SDS011;11748;50.844;4.396;2024-01-16T15:00:24;10.43;;;3.40;;
23159;SDS011;11748;50.844;4.396;2024-01-16T15:02:52;7.72;;;3.13;;